sensor_id;sensor_type;location;lat;lon;timestamp;temperature;humidity
3996;DHT22;2012;49.794;9.722;2022-09-06T00:02:18;17.70;99.90
3996;DHT22;2012;49.794;9.722;2022-09-06T00:04:44;17.60;99.90
3996;DHT22;2012;49.794;9.722;2022-09-06T00:07:11;17.60;99.90
3996;DHT22;2012;49.794;9.722;2022-09-06T00:09:38;17.50;99.90
3996;DHT22;2012;49.794;9.722;2022-09-06T00:12:05;17.50;99.90
3996;DHT22;2012;49.794;9.722;2022-09-06T00:14:31;17.50;99.90
3996;DHT22;2012;49.794;9.722;2022-09-06T00:16:59;17.50;99.90
3996;DHT22;2012;49.794;9.722;2022-09-06T00:19:26;17.60;99.90
3996;DHT22;2012;49.794;9.722;2022-09-06T00:21:53;17.70;99.90
3996;DHT22;2012;49.794;9.722;2022-09-06T00:24:20;17.60;99.90
3996;DHT22;2012;49.794;9.722;2022-09-06T00:26:46;17.60;99.90
3996;DHT22;2012;49.794;9.722;2022-09-06T00:29:13;17.70;99.90
3996;DHT22;2012;49.794;9.722;2022-09-06T00:31:40;17.70;99.90
3996;DHT22;2012;49.794;9.722;2022-09-06T00:34:06;17.60;99.90
3996;DHT22;2012;49.794;9.722;2022-09-06T00:36:33;17.60;99.90
3996;DHT22;2012;49.794;9.722;2022-09-06T00:39:00;17.40;99.90
3996;DHT22;2012;49.794;9.722;2022-09-06T00:41:27;17.10;99.90
3996;DHT22;2012;49.794;9.722;2022-09-06T00:43:53;17.10;99.90
3996;DHT22;2012;49.794;9.722;2022-09-06T00:46:24;17.20;99.90
3996;DHT22;2012;49.794;9.722;2022-09-06T00:49:08;17.30;99.90
3996;DHT22;2012;49.794;9.722;2022-09-06T00:51:36;17.20;99.90
3996;DHT22;2012;49.794;9.722;2022-09-06T00:54:04;17.10;99.90
3996;DHT22;2012;49.794;9.722;2022-09-06T00:56:34;17.00;99.90
3996;DHT22;2012;49.794;9.722;2022-09-06T00:59:03;17.00;99.90
3996;DHT22;2012;49.794;9.722;2022-09-06T01:01:30;17.10;99.90
3996;DHT22;2012;49.794;9.722;2022-09-06T01:03:57;17.00;99.90
3996;DHT22;2012;49.794;9.722;2022-09-06T01:09:36;16.80;99.90
3996;DHT22;2012;49.794;9.722;2022-09-06T01:23:48;16.90;99.90
3996;DHT22;2012;49.794;9.722;2022-09-06T01:26:36;16.90;99.90
3996;DHT22;2012;49.794;9.722;2022-09-06T01:29:31;16.90;99.90
3996;DHT22;2012;49.794;9.722;2022-09-06T01:35:17;16.90;99.90
3996;DHT22;2012;49.794;9.722;2022-09-06T01:37:47;16.80;99.90
3996;DHT22;2012;49.794;9.722;2022-09-06T01:40:14;17.00;99.90
3996;DHT22;2012;49.794;9.722;2022-09-06T01:42:44;17.00;99.90
3996;DHT22;2012;49.794;9.722;2022-09-06T01:45:18;17.00;99.90
3996;DHT22;2012;49.794;9.722;2022-09-06T01:55:57;16.90;99.90
3996;DHT22;2012;49.794;9.722;2022-09-06T02:01:34;16.80;99.90
3996;DHT22;2012;49.794;9.722;2022-09-06T02:04:17;16.90;99.90
3996;DHT22;2012;49.794;9.722;2022-09-06T02:06:51;16.90;99.90
3996;DHT22;2012;49.794;9.722;2022-09-06T02:09:22;16.90;99.90
3996;DHT22;2012;49.794;9.722;2022-09-06T02:11:54;17.00;99.90
3996;DHT22;2012;49.794;9.722;2022-09-06T02:14:29;17.00;99.90
3996;DHT22;2012;49.794;9.722;2022-09-06T02:16:58;17.00;99.90
3996;DHT22;2012;49.794;9.722;2022-09-06T02:20:01;16.90;99.90
3996;DHT22;2012;49.794;9.722;2022-09-06T02:22:27;16.90;99.90
3996;DHT22;2012;49.794;9.722;2022-09-06T02:24:56;17.00;99.90
3996;DHT22;2012;49.794;9.722;2022-09-06T02:27:24;17.00;99.90
3996;DHT22;2012;49.794;9.722;2022-09-06T02:29:51;17.00;99.90
3996;DHT22;2012;49.794;9.722;2022-09-06T02:32:22;16.90;99.90
3996;DHT22;2012;49.794;9.722;2022-09-06T02:34:51;16.90;99.90
3996;DHT22;2012;49.794;9.722;2022-09-06T02:37:20;16.90;99.90
3996;DHT22;2012;49.794;9.722;2022-09-06T02:39:48;16.90;99.90
3996;DHT22;2012;49.794;9.722;2022-09-06T02:42:15;16.80;99.90
3996;DHT22;2012;49.794;9.722;2022-09-06T02:44:43;16.80;99.90
3996;DHT22;2012;49.794;9.722;2022-09-06T02:47:09;16.70;99.90
3996;DHT22;2012;49.794;9.722;2022-09-06T02:49:36;16.70;99.90
3996;DHT22;2012;49.794;9.722;2022-09-06T02:52:03;16.70;99.90
3996;DHT22;2012;49.794;9.722;2022-09-06T02:54:29;16.50;99.90
3996;DHT22;2012;49.794;9.722;2022-09-06T02:56:56;16.60;99.90
3996;DHT22;2012;49.794;9.722;2022-09-06T02:59:23;16.60;99.90
3996;DHT22;2012;49.794;9.722;2022-09-06T03:01:50;16.70;99.90
3996;DHT22;2012;49.794;9.722;2022-09-06T03:04:17;16.80;99.90
3996;DHT22;2012;49.794;9.722;2022-09-06T03:06:44;16.70;99.90
3996;DHT22;2012;49.794;9.722;2022-09-06T03:09:10;16.60;99.90
3996;DHT22;2012;49.794;9.722;2022-09-06T03:11:37;16.70;99.90
3996;DHT22;2012;49.794;9.722;2022-09-06T03:14:04;16.60;99.90
3996;DHT22;2012;49.794;9.722;2022-09-06T03:16:31;16.30;99.90
3996;DHT22;2012;49.794;9.722;2022-09-06T03:18:57;16.20;99.90
3996;DHT22;2012;49.794;9.722;2022-09-06T03:21:24;16.50;99.90
3996;DHT22;2012;49.794;9.722;2022-09-06T03:23:51;16.70;99.90
3996;DHT22;2012;49.794;9.722;2022-09-06T03:26:17;16.90;99.90
3996;DHT22;2012;49.794;9.722;2022-09-06T03:28:44;17.00;99.90
3996;DHT22;2012;49.794;9.722;2022-09-06T03:31:11;17.20;99.90
3996;DHT22;2012;49.794;9.722;2022-09-06T03:33:38;17.20;99.90
3996;DHT22;2012;49.794;9.722;2022-09-06T03:36:05;17.20;99.90
3996;DHT22;2012;49.794;9.722;2022-09-06T03:38:32;17.30;99.90
3996;DHT22;2012;49.794;9.722;2022-09-06T03:40:59;17.20;99.90
3996;DHT22;2012;49.794;9.722;2022-09-06T03:43:26;17.20;99.90
3996;DHT22;2012;49.794;9.722;2022-09-06T03:45:56;17.30;99.90
3996;DHT22;2012;49.794;9.722;2022-09-06T03:48:25;17.20;99.90
3996;DHT22;2012;49.794;9.722;2022-09-06T03:50:55;17.30;99.90
3996;DHT22;2012;49.794;9.722;2022-09-06T03:53:23;17.30;99.90
3996;DHT22;2012;49.794;9.722;2022-09-06T03:55:52;17.30;99.90
3996;DHT22;2012;49.794;9.722;2022-09-06T03:58:21;17.40;99.90
3996;DHT22;2012;49.794;9.722;2022-09-06T04:00:49;17.30;99.90
3996;DHT22;2012;49.794;9.722;2022-09-06T04:03:24;17.40;99.90
3996;DHT22;2012;49.794;9.722;2022-09-06T04:05:51;17.40;99.90
3996;DHT22;2012;49.794;9.722;2022-09-06T04:08:18;17.20;99.90
3996;DHT22;2012;49.794;9.722;2022-09-06T04:10:47;17.20;99.90
3996;DHT22;2012;49.794;9.722;2022-09-06T04:13:14;17.40;99.90
3996;DHT22;2012;49.794;9.722;2022-09-06T04:15:45;17.30;99.90
3996;DHT22;2012;49.794;9.722;2022-09-06T04:18:13;17.20;99.90
3996;DHT22;2012;49.794;9.722;2022-09-06T04:20:40;17.20;99.90
3996;DHT22;2012;49.794;9.722;2022-09-06T04:23:07;17.30;99.90
3996;DHT22;2012;49.794;9.722;2022-09-06T04:25:34;17.40;99.90
3996;DHT22;2012;49.794;9.722;2022-09-06T04:28:01;17.40;99.90
3996;DHT22;2012;49.794;9.722;2022-09-06T04:30:27;17.40;99.90
3996;DHT22;2012;49.794;9.722;2022-09-06T04:32:54;17.40;99.90
3996;DHT22;2012;49.794;9.722;2022-09-06T04:35:21;17.40;99.90
3996;DHT22;2012;49.794;9.722;2022-09-06T04:37:48;17.40;99.90
3996;DHT22;2012;49.794;9.722;2022-09-06T04:40:15;17.40;99.90
3996;DHT22;2012;49.794;9.722;2022-09-06T04:42:41;17.30;99.90
3996;DHT22;2012;49.794;9.722;2022-09-06T04:45:08;17.40;99.90
3996;DHT22;2012;49.794;9.722;2022-09-06T04:47:35;17.40;99.90
3996;DHT22;2012;49.794;9.722;2022-09-06T04:50:02;17.50;99.90
3996;DHT22;2012;49.794;9.722;2022-09-06T04:52:29;17.50;99.90
3996;DHT22;2012;49.794;9.722;2022-09-06T04:54:56;17.50;99.90
3996;DHT22;2012;49.794;9.722;2022-09-06T04:57:23;17.40;99.90
3996;DHT22;2012;49.794;9.722;2022-09-06T04:59:49;17.50;99.90
3996;DHT22;2012;49.794;9.722;2022-09-06T05:02:16;17.40;99.90
3996;DHT22;2012;49.794;9.722;2022-09-06T05:04:43;17.40;99.90
3996;DHT22;2012;49.794;9.722;2022-09-06T05:07:09;17.40;99.90
3996;DHT22;2012;49.794;9.722;2022-09-06T05:09:36;17.40;99.90
3996;DHT22;2012;49.794;9.722;2022-09-06T05:12:03;17.50;99.90
3996;DHT22;2012;49.794;9.722;2022-09-06T05:14:30;17.40;99.90
3996;DHT22;2012;49.794;9.722;2022-09-06T05:16:56;17.30;99.90
3996;DHT22;2012;49.794;9.722;2022-09-06T05:19:24;17.40;99.90
3996;DHT22;2012;49.794;9.722;2022-09-06T05:21:51;17.50;99.90
3996;DHT22;2012;49.794;9.722;2022-09-06T05:24:17;17.50;99.90
3996;DHT22;2012;49.794;9.722;2022-09-06T05:26:44;17.50;99.90
3996;DHT22;2012;49.794;9.722;2022-09-06T05:29:11;17.40;99.90
3996;DHT22;2012;49.794;9.722;2022-09-06T05:31:38;17.50;99.90
3996;DHT22;2012;49.794;9.722;2022-09-06T05:34:05;17.50;99.90
3996;DHT22;2012;49.794;9.722;2022-09-06T05:36:31;17.50;99.90
3996;DHT22;2012;49.794;9.722;2022-09-06T05:38:59;17.50;99.90
3996;DHT22;2012;49.794;9.722;2022-09-06T05:41:26;17.60;99.90
3996;DHT22;2012;49.794;9.722;2022-09-06T05:43:52;17.60;99.90
3996;DHT22;2012;49.794;9.722;2022-09-06T05:46:19;17.50;99.90
3996;DHT22;2012;49.794;9.722;2022-09-06T05:48:54;17.50;99.90
3996;DHT22;2012;49.794;9.722;2022-09-06T05:51:21;17.70;99.90
3996;DHT22;2012;49.794;9.722;2022-09-06T05:53:48;17.70;99.90
3996;DHT22;2012;49.794;9.722;2022-09-06T05:56:15;17.80;99.90
3996;DHT22;2012;49.794;9.722;2022-09-06T05:58:42;17.80;99.90
3996;DHT22;2012;49.794;9.722;2022-09-06T06:01:20;17.90;99.90
3996;DHT22;2012;49.794;9.722;2022-09-06T06:03:58;17.80;99.90
3996;DHT22;2012;49.794;9.722;2022-09-06T06:06:28;17.90;99.90
3996;DHT22;2012;49.794;9.722;2022-09-06T06:08:55;17.90;99.90
3996;DHT22;2012;49.794;9.722;2022-09-06T06:11:23;17.90;99.90
3996;DHT22;2012;49.794;9.722;2022-09-06T06:13:51;17.90;99.90
3996;DHT22;2012;49.794;9.722;2022-09-06T06:16:20;17.90;99.90
3996;DHT22;2012;49.794;9.722;2022-09-06T06:18:48;17.80;99.90
3996;DHT22;2012;49.794;9.722;2022-09-06T06:21:27;17.80;99.90
3996;DHT22;2012;49.794;9.722;2022-09-06T06:23:56;17.70;99.90
3996;DHT22;2012;49.794;9.722;2022-09-06T06:26:24;17.80;99.90
3996;DHT22;2012;49.794;9.722;2022-09-06T06:28:51;17.90;99.90
3996;DHT22;2012;49.794;9.722;2022-09-06T06:31:19;17.80;99.90
3996;DHT22;2012;49.794;9.722;2022-09-06T06:33:48;17.90;99.90
3996;DHT22;2012;49.794;9.722;2022-09-06T06:38:43;18.10;99.90
3996;DHT22;2012;49.794;9.722;2022-09-06T06:41:12;18.20;99.90
3996;DHT22;2012;49.794;9.722;2022-09-06T06:43:40;18.30;99.90
3996;DHT22;2012;49.794;9.722;2022-09-06T06:48:36;18.40;99.90
3996;DHT22;2012;49.794;9.722;2022-09-06T06:51:02;18.40;99.90
3996;DHT22;2012;49.794;9.722;2022-09-06T06:53:29;18.50;99.90
3996;DHT22;2012;49.794;9.722;2022-09-06T06:55:56;18.60;99.90
3996;DHT22;2012;49.794;9.722;2022-09-06T06:58:23;18.70;99.90
3996;DHT22;2012;49.794;9.722;2022-09-06T07:00:50;18.70;99.90
3996;DHT22;2012;49.794;9.722;2022-09-06T07:03:17;18.70;99.90
3996;DHT22;2012;49.794;9.722;2022-09-06T07:05:43;18.80;99.90
3996;DHT22;2012;49.794;9.722;2022-09-06T07:08:32;19.00;99.90
3996;DHT22;2012;49.794;9.722;2022-09-06T07:10:59;19.00;99.90
3996;DHT22;2012;49.794;9.722;2022-09-06T07:13:26;19.10;99.90
3996;DHT22;2012;49.794;9.722;2022-09-06T07:16:06;19.10;99.90
3996;DHT22;2012;49.794;9.722;2022-09-06T07:18:33;19.10;99.90
3996;DHT22;2012;49.794;9.722;2022-09-06T07:21:00;19.20;99.90
3996;DHT22;2012;49.794;9.722;2022-09-06T07:23:46;19.30;99.90
3996;DHT22;2012;49.794;9.722;2022-09-06T07:26:34;19.30;99.90
3996;DHT22;2012;49.794;9.722;2022-09-06T07:29:03;19.40;99.90
3996;DHT22;2012;49.794;9.722;2022-09-06T07:31:31;19.40;99.90
3996;DHT22;2012;49.794;9.722;2022-09-06T07:34:18;19.40;99.90
3996;DHT22;2012;49.794;9.722;2022-09-06T07:36:46;19.70;99.90
3996;DHT22;2012;49.794;9.722;2022-09-06T07:39:12;19.70;99.90
3996;DHT22;2012;49.794;9.722;2022-09-06T07:41:39;19.70;99.90
3996;DHT22;2012;49.794;9.722;2022-09-06T07:44:06;19.70;99.90
3996;DHT22;2012;49.794;9.722;2022-09-06T07:46:32;19.70;99.90
3996;DHT22;2012;49.794;9.722;2022-09-06T07:48:59;19.90;99.90
3996;DHT22;2012;49.794;9.722;2022-09-06T07:51:29;19.90;99.90
3996;DHT22;2012;49.794;9.722;2022-09-06T07:53:55;20.10;99.90
3996;DHT22;2012;49.794;9.722;2022-09-06T07:56:42;20.30;99.90
3996;DHT22;2012;49.794;9.722;2022-09-06T07:59:09;20.30;99.90
3996;DHT22;2012;49.794;9.722;2022-09-06T08:01:39;20.30;99.90
3996;DHT22;2012;49.794;9.722;2022-09-06T08:04:11;20.40;99.90
3996;DHT22;2012;49.794;9.722;2022-09-06T08:06:43;20.40;99.90
3996;DHT22;2012;49.794;9.722;2022-09-06T08:09:30;20.30;99.90
3996;DHT22;2012;49.794;9.722;2022-09-06T08:11:58;20.40;99.90
3996;DHT22;2012;49.794;9.722;2022-09-06T08:14:24;20.50;99.90
3996;DHT22;2012;49.794;9.722;2022-09-06T08:16:51;20.70;99.90
3996;DHT22;2012;49.794;9.722;2022-09-06T08:19:18;20.90;99.90
3996;DHT22;2012;49.794;9.722;2022-09-06T08:21:45;20.90;99.90
3996;DHT22;2012;49.794;9.722;2022-09-06T08:24:11;21.10;99.90
3996;DHT22;2012;49.794;9.722;2022-09-06T08:26:38;21.10;99.90
3996;DHT22;2012;49.794;9.722;2022-09-06T08:29:08;21.20;99.90
3996;DHT22;2012;49.794;9.722;2022-09-06T08:31:39;21.30;99.90
3996;DHT22;2012;49.794;9.722;2022-09-06T08:34:06;21.50;99.90
3996;DHT22;2012;49.794;9.722;2022-09-06T08:36:34;21.50;99.90
3996;DHT22;2012;49.794;9.722;2022-09-06T08:39:03;21.50;99.90
3996;DHT22;2012;49.794;9.722;2022-09-06T08:41:58;21.60;99.90
3996;DHT22;2012;49.794;9.722;2022-09-06T08:44:47;21.70;99.90
3996;DHT22;2012;49.794;9.722;2022-09-06T08:47:24;21.60;99.90
3996;DHT22;2012;49.794;9.722;2022-09-06T08:49:59;21.70;99.90
3996;DHT22;2012;49.794;9.722;2022-09-06T08:55:58;22.20;99.90
3996;DHT22;2012;49.794;9.722;2022-09-06T08:58:57;22.70;99.90
3996;DHT22;2012;49.794;9.722;2022-09-06T09:01:33;22.70;99.90
3996;DHT22;2012;49.794;9.722;2022-09-06T09:04:03;22.60;99.90
3996;DHT22;2012;49.794;9.722;2022-09-06T09:06:31;22.80;99.90
3996;DHT22;2012;49.794;9.722;2022-09-06T09:09:09;23.10;99.90
3996;DHT22;2012;49.794;9.722;2022-09-06T09:11:42;23.20;99.90
3996;DHT22;2012;49.794;9.722;2022-09-06T09:14:23;23.30;99.90
3996;DHT22;2012;49.794;9.722;2022-09-06T09:16:54;23.60;99.90
3996;DHT22;2012;49.794;9.722;2022-09-06T09:19:21;23.80;98.40
3996;DHT22;2012;49.794;9.722;2022-09-06T09:21:48;23.90;98.10
3996;DHT22;2012;49.794;9.722;2022-09-06T09:24:15;23.90;97.20
3996;DHT22;2012;49.794;9.722;2022-09-06T09:26:55;23.90;96.90
3996;DHT22;2012;49.794;9.722;2022-09-06T09:29:23;23.90;97.10
3996;DHT22;2012;49.794;9.722;2022-09-06T09:31:56;24.10;95.90
3996;DHT22;2012;49.794;9.722;2022-09-06T09:34:32;24.20;95.20
3996;DHT22;2012;49.794;9.722;2022-09-06T09:37:24;24.30;96.50
3996;DHT22;2012;49.794;9.722;2022-09-06T09:40:15;24.30;95.70
3996;DHT22;2012;49.794;9.722;2022-09-06T09:42:43;24.50;93.70
3996;DHT22;2012;49.794;9.722;2022-09-06T09:47:45;24.80;93.10
3996;DHT22;2012;49.794;9.722;2022-09-06T09:50:31;24.90;91.70
3996;DHT22;2012;49.794;9.722;2022-09-06T09:53:13;25.20;92.70
3996;DHT22;2012;49.794;9.722;2022-09-06T09:55:41;25.20;91.60
3996;DHT22;2012;49.794;9.722;2022-09-06T09:58:34;25.20;91.20
3996;DHT22;2012;49.794;9.722;2022-09-06T10:01:20;25.20;90.10
3996;DHT22;2012;49.794;9.722;2022-09-06T10:03:50;25.40;90.20
3996;DHT22;2012;49.794;9.722;2022-09-06T10:06:37;25.70;89.40
3996;DHT22;2012;49.794;9.722;2022-09-06T10:09:33;25.60;86.30
3996;DHT22;2012;49.794;9.722;2022-09-06T10:12:01;25.70;86.80
3996;DHT22;2012;49.794;9.722;2022-09-06T10:14:32;25.60;86.10
3996;DHT22;2012;49.794;9.722;2022-09-06T10:17:05;25.70;85.30
3996;DHT22;2012;49.794;9.722;2022-09-06T10:19:42;25.90;85.70
3996;DHT22;2012;49.794;9.722;2022-09-06T10:22:30;26.10;85.40
3996;DHT22;2012;49.794;9.722;2022-09-06T10:31:32;26.50;83.10
3996;DHT22;2012;49.794;9.722;2022-09-06T10:37:41;26.40;80.30
3996;DHT22;2012;49.794;9.722;2022-09-06T10:40:14;26.50;82.10
3996;DHT22;2012;49.794;9.722;2022-09-06T10:42:49;26.60;80.00
3996;DHT22;2012;49.794;9.722;2022-09-06T10:48:31;27.10;81.70
3996;DHT22;2012;49.794;9.722;2022-09-06T10:51:36;27.30;79.50
3996;DHT22;2012;49.794;9.722;2022-09-06T10:54:04;27.30;77.90
3996;DHT22;2012;49.794;9.722;2022-09-06T10:56:42;27.40;80.30
3996;DHT22;2012;49.794;9.722;2022-09-06T11:05:15;27.60;75.70
3996;DHT22;2012;49.794;9.722;2022-09-06T11:11:17;27.90;75.20
3996;DHT22;2012;49.794;9.722;2022-09-06T11:13:45;28.00;75.40
3996;DHT22;2012;49.794;9.722;2022-09-06T11:16:19;28.30;74.90
3996;DHT22;2012;49.794;9.722;2022-09-06T11:19:04;28.60;74.40
3996;DHT22;2012;49.794;9.722;2022-09-06T11:22:05;28.50;70.60
3996;DHT22;2012;49.794;9.722;2022-09-06T11:28:07;28.70;70.70
3996;DHT22;2012;49.794;9.722;2022-09-06T11:30:36;28.80;69.00
3996;DHT22;2012;49.794;9.722;2022-09-06T11:33:21;28.60;69.60
3996;DHT22;2012;49.794;9.722;2022-09-06T11:35:50;28.90;68.50
3996;DHT22;2012;49.794;9.722;2022-09-06T11:38:21;28.90;66.90
3996;DHT22;2012;49.794;9.722;2022-09-06T11:40:56;28.60;66.20
3996;DHT22;2012;49.794;9.722;2022-09-06T11:43:47;28.70;67.40
3996;DHT22;2012;49.794;9.722;2022-09-06T11:49:05;29.40;64.80
3996;DHT22;2012;49.794;9.722;2022-09-06T11:51:39;29.80;63.30
3996;DHT22;2012;49.794;9.722;2022-09-06T11:54:43;29.70;64.30
3996;DHT22;2012;49.794;9.722;2022-09-06T11:57:14;29.90;62.50
3996;DHT22;2012;49.794;9.722;2022-09-06T11:59:51;30.10;61.70
3996;DHT22;2012;49.794;9.722;2022-09-06T12:02:32;30.00;62.50
3996;DHT22;2012;49.794;9.722;2022-09-06T12:07:30;29.90;61.90
3996;DHT22;2012;49.794;9.722;2022-09-06T12:10:01;29.70;61.70
3996;DHT22;2012;49.794;9.722;2022-09-06T12:12:48;30.10;61.10
3996;DHT22;2012;49.794;9.722;2022-09-06T12:15:28;30.30;59.60
3996;DHT22;2012;49.794;9.722;2022-09-06T12:17:56;30.10;57.40
3996;DHT22;2012;49.794;9.722;2022-09-06T12:26:02;30.40;57.90
3996;DHT22;2012;49.794;9.722;2022-09-06T12:28:41;30.50;59.00
3996;DHT22;2012;49.794;9.722;2022-09-06T12:33:57;30.60;56.50
3996;DHT22;2012;49.794;9.722;2022-09-06T12:36:27;30.30;56.60
3996;DHT22;2012;49.794;9.722;2022-09-06T12:39:01;30.90;57.10
3996;DHT22;2012;49.794;9.722;2022-09-06T12:41:34;31.10;55.10
3996;DHT22;2012;49.794;9.722;2022-09-06T12:44:07;31.20;56.20
3996;DHT22;2012;49.794;9.722;2022-09-06T12:46:34;31.30;54.00
3996;DHT22;2012;49.794;9.722;2022-09-06T12:49:10;31.40;54.40
3996;DHT22;2012;49.794;9.722;2022-09-06T12:51:39;31.50;52.20
3996;DHT22;2012;49.794;9.722;2022-09-06T12:54:21;31.40;54.10
3996;DHT22;2012;49.794;9.722;2022-09-06T12:56:50;31.30;53.00
3996;DHT22;2012;49.794;9.722;2022-09-06T12:59:21;31.20;54.10
3996;DHT22;2012;49.794;9.722;2022-09-06T13:01:56;31.50;54.40
3996;DHT22;2012;49.794;9.722;2022-09-06T13:04:32;31.60;52.60
3996;DHT22;2012;49.794;9.722;2022-09-06T13:07:02;31.40;52.50
3996;DHT22;2012;49.794;9.722;2022-09-06T13:09:30;31.50;53.50
3996;DHT22;2012;49.794;9.722;2022-09-06T13:12:06;31.70;52.60
3996;DHT22;2012;49.794;9.722;2022-09-06T13:14:34;32.10;52.30
3996;DHT22;2012;49.794;9.722;2022-09-06T13:17:01;32.30;51.40
3996;DHT22;2012;49.794;9.722;2022-09-06T13:19:36;32.10;51.50
3996;DHT22;2012;49.794;9.722;2022-09-06T13:22:08;32.10;52.20
3996;DHT22;2012;49.794;9.722;2022-09-06T13:24:45;32.00;51.00
3996;DHT22;2012;49.794;9.722;2022-09-06T13:30:05;31.40;52.00
3996;DHT22;2012;49.794;9.722;2022-09-06T13:32:33;31.40;51.00
3996;DHT22;2012;49.794;9.722;2022-09-06T13:35:02;31.80;50.50
3996;DHT22;2012;49.794;9.722;2022-09-06T13:37:31;32.00;50.70
3996;DHT22;2012;49.794;9.722;2022-09-06T13:39:59;31.70;48.30
3996;DHT22;2012;49.794;9.722;2022-09-06T13:42:31;31.90;48.60
3996;DHT22;2012;49.794;9.722;2022-09-06T13:45:26;32.20;48.30
3996;DHT22;2012;49.794;9.722;2022-09-06T13:47:53;32.40;48.60
3996;DHT22;2012;49.794;9.722;2022-09-06T13:50:40;32.50;46.60
3996;DHT22;2012;49.794;9.722;2022-09-06T13:53:07;32.50;45.10
3996;DHT22;2012;49.794;9.722;2022-09-06T13:55:34;32.50;45.30
3996;DHT22;2012;49.794;9.722;2022-09-06T13:58:00;32.50;44.40
3996;DHT22;2012;49.794;9.722;2022-09-06T14:00:27;32.40;46.30
3996;DHT22;2012;49.794;9.722;2022-09-06T14:02:54;32.80;46.60
3996;DHT22;2012;49.794;9.722;2022-09-06T14:05:21;32.70;44.50
3996;DHT22;2012;49.794;9.722;2022-09-06T14:07:47;32.60;45.00
3996;DHT22;2012;49.794;9.722;2022-09-06T14:10:14;32.60;46.30
3996;DHT22;2012;49.794;9.722;2022-09-06T14:12:41;32.60;46.50
3996;DHT22;2012;49.794;9.722;2022-09-06T14:15:08;32.70;44.70
3996;DHT22;2012;49.794;9.722;2022-09-06T14:17:35;32.90;43.60
3996;DHT22;2012;49.794;9.722;2022-09-06T14:20:02;32.80;43.20
3996;DHT22;2012;49.794;9.722;2022-09-06T14:22:29;32.80;41.30
3996;DHT22;2012;49.794;9.722;2022-09-06T14:24:56;32.70;41.00
3996;DHT22;2012;49.794;9.722;2022-09-06T14:27:23;32.90;41.50
3996;DHT22;2012;49.794;9.722;2022-09-06T14:29:49;33.00;42.60
3996;DHT22;2012;49.794;9.722;2022-09-06T14:32:16;32.80;43.00
3996;DHT22;2012;49.794;9.722;2022-09-06T14:34:48;32.90;42.70
3996;DHT22;2012;49.794;9.722;2022-09-06T14:37:15;33.00;43.30
3996;DHT22;2012;49.794;9.722;2022-09-06T14:39:41;33.00;43.00
3996;DHT22;2012;49.794;9.722;2022-09-06T14:42:08;32.90;42.10
3996;DHT22;2012;49.794;9.722;2022-09-06T14:44:35;32.30;42.40
3996;DHT22;2012;49.794;9.722;2022-09-06T14:47:02;32.40;42.80
3996;DHT22;2012;49.794;9.722;2022-09-06T14:49:28;32.60;43.90
3996;DHT22;2012;49.794;9.722;2022-09-06T14:51:55;32.70;43.60
3996;DHT22;2012;49.794;9.722;2022-09-06T14:54:22;32.70;42.70
3996;DHT22;2012;49.794;9.722;2022-09-06T14:56:55;32.80;42.40
3996;DHT22;2012;49.794;9.722;2022-09-06T14:59:22;32.80;42.60
3996;DHT22;2012;49.794;9.722;2022-09-06T15:01:49;32.90;42.00
3996;DHT22;2012;49.794;9.722;2022-09-06T15:04:16;32.90;42.10
3996;DHT22;2012;49.794;9.722;2022-09-06T15:06:43;32.90;41.60
3996;DHT22;2012;49.794;9.722;2022-09-06T15:09:13;32.90;42.10
3996;DHT22;2012;49.794;9.722;2022-09-06T15:11:43;32.70;41.70
3996;DHT22;2012;49.794;9.722;2022-09-06T15:14:22;32.80;43.40
3996;DHT22;2012;49.794;9.722;2022-09-06T15:16:50;32.80;41.20
3996;DHT22;2012;49.794;9.722;2022-09-06T15:19:23;32.80;40.00
3996;DHT22;2012;49.794;9.722;2022-09-06T15:21:50;32.90;40.40
3996;DHT22;2012;49.794;9.722;2022-09-06T15:24:17;32.60;40.80
3996;DHT22;2012;49.794;9.722;2022-09-06T15:26:44;32.80;40.80
3996;DHT22;2012;49.794;9.722;2022-09-06T15:29:12;32.70;40.50
3996;DHT22;2012;49.794;9.722;2022-09-06T15:31:39;32.40;40.80
3996;DHT22;2012;49.794;9.722;2022-09-06T15:34:08;32.50;41.30
3996;DHT22;2012;49.794;9.722;2022-09-06T15:36:36;32.40;41.00
3996;DHT22;2012;49.794;9.722;2022-09-06T15:39:04;32.40;42.30
3996;DHT22;2012;49.794;9.722;2022-09-06T15:41:33;32.40;41.20
3996;DHT22;2012;49.794;9.722;2022-09-06T15:44:11;32.50;40.60
3996;DHT22;2012;49.794;9.722;2022-09-06T15:46:54;32.40;40.60
3996;DHT22;2012;49.794;9.722;2022-09-06T15:49:33;32.40;39.90
3996;DHT22;2012;49.794;9.722;2022-09-06T15:52:01;32.30;40.90
3996;DHT22;2012;49.794;9.722;2022-09-06T15:54:28;32.10;42.00
3996;DHT22;2012;49.794;9.722;2022-09-06T15:57:14;32.10;41.40
3996;DHT22;2012;49.794;9.722;2022-09-06T15:59:42;32.00;41.10
3996;DHT22;2012;49.794;9.722;2022-09-06T16:02:09;31.80;40.90
3996;DHT22;2012;49.794;9.722;2022-09-06T16:04:36;31.80;41.20
3996;DHT22;2012;49.794;9.722;2022-09-06T16:07:04;31.70;42.30
3996;DHT22;2012;49.794;9.722;2022-09-06T16:09:31;31.70;42.80
3996;DHT22;2012;49.794;9.722;2022-09-06T16:11:58;31.60;43.70
3996;DHT22;2012;49.794;9.722;2022-09-06T16:14:25;31.60;43.10
3996;DHT22;2012;49.794;9.722;2022-09-06T16:16:53;31.70;43.00
3996;DHT22;2012;49.794;9.722;2022-09-06T16:19:22;31.40;43.10
3996;DHT22;2012;49.794;9.722;2022-09-06T16:21:49;31.30;44.20
3996;DHT22;2012;49.794;9.722;2022-09-06T16:24:16;30.90;45.40
3996;DHT22;2012;49.794;9.722;2022-09-06T16:26:44;30.80;46.10
3996;DHT22;2012;49.794;9.722;2022-09-06T16:29:15;30.80;45.50
3996;DHT22;2012;49.794;9.722;2022-09-06T16:31:44;30.80;46.60
3996;DHT22;2012;49.794;9.722;2022-09-06T16:34:11;30.50;47.50
3996;DHT22;2012;49.794;9.722;2022-09-06T16:36:38;30.50;47.80
3996;DHT22;2012;49.794;9.722;2022-09-06T16:39:06;30.20;49.50
3996;DHT22;2012;49.794;9.722;2022-09-06T16:41:40;30.00;50.80
3996;DHT22;2012;49.794;9.722;2022-09-06T16:44:09;29.80;50.60
3996;DHT22;2012;49.794;9.722;2022-09-06T16:46:39;29.60;51.60
3996;DHT22;2012;49.794;9.722;2022-09-06T16:49:07;29.40;52.00
3996;DHT22;2012;49.794;9.722;2022-09-06T16:51:34;29.30;52.60
3996;DHT22;2012;49.794;9.722;2022-09-06T16:54:01;29.20;52.70
3996;DHT22;2012;49.794;9.722;2022-09-06T16:56:30;29.10;54.20
3996;DHT22;2012;49.794;9.722;2022-09-06T16:59:01;29.10;54.90
3996;DHT22;2012;49.794;9.722;2022-09-06T17:01:30;28.90;55.20
3996;DHT22;2012;49.794;9.722;2022-09-06T17:03:59;28.80;54.80
3996;DHT22;2012;49.794;9.722;2022-09-06T17:06:30;28.70;55.10
3996;DHT22;2012;49.794;9.722;2022-09-06T17:08:58;28.70;55.40
3996;DHT22;2012;49.794;9.722;2022-09-06T17:11:27;28.60;55.70
3996;DHT22;2012;49.794;9.722;2022-09-06T17:13:54;28.60;55.60
3996;DHT22;2012;49.794;9.722;2022-09-06T17:16:22;28.50;56.10
3996;DHT22;2012;49.794;9.722;2022-09-06T17:19:08;28.40;56.40
3996;DHT22;2012;49.794;9.722;2022-09-06T17:21:36;28.30;58.00
3996;DHT22;2012;49.794;9.722;2022-09-06T17:24:05;28.20;57.10
3996;DHT22;2012;49.794;9.722;2022-09-06T17:26:35;28.10;58.50
3996;DHT22;2012;49.794;9.722;2022-09-06T17:29:03;28.00;58.40
3996;DHT22;2012;49.794;9.722;2022-09-06T17:31:30;28.00;57.30
3996;DHT22;2012;49.794;9.722;2022-09-06T17:33:57;27.90;58.20
3996;DHT22;2012;49.794;9.722;2022-09-06T17:36:27;28.00;58.80
3996;DHT22;2012;49.794;9.722;2022-09-06T17:39:07;27.90;59.20
3996;DHT22;2012;49.794;9.722;2022-09-06T17:41:37;27.90;60.10
3996;DHT22;2012;49.794;9.722;2022-09-06T17:44:06;27.70;60.50
3996;DHT22;2012;49.794;9.722;2022-09-06T17:46:33;27.80;61.20
3996;DHT22;2012;49.794;9.722;2022-09-06T17:48:59;27.60;62.30